createdAt,value
2022-08-28T00:00:38.991Z,18.62
2022-08-28T00:03:06.104Z,18.61
2022-08-28T00:05:33.716Z,18.61
2022-08-28T00:08:00.735Z,18.57
2022-08-28T00:10:27.967Z,18.63
2022-08-28T00:12:57.549Z,18.61
2022-08-28T00:15:31.229Z,18.57
2022-08-28T00:17:58.713Z,18.56
2022-08-28T00:20:26.904Z,18.56
2022-08-28T00:22:55.650Z,18.48
2022-08-28T00:25:24.346Z,18.50
2022-08-28T00:27:52.891Z,18.49
2022-08-28T00:30:26.353Z,18.43
2022-08-28T00:32:54.693Z,18.43
2022-08-28T00:35:23.836Z,18.46
2022-08-28T00:37:51.817Z,18.49
2022-08-28T00:40:28.845Z,18.50
2022-08-28T00:43:01.482Z,18.47
2022-08-28T00:45:28.790Z,18.47
2022-08-28T00:47:55.674Z,18.46
2022-08-28T00:50:25.097Z,18.31
2022-08-28T00:52:55.654Z,18.26
2022-08-28T00:55:25.239Z,18.22
2022-08-28T00:57:58.362Z,18.14
2022-08-28T01:00:34.972Z,18.20
2022-08-28T01:03:02.962Z,18.28
2022-08-28T01:05:30.039Z,18.28
2022-08-28T01:07:58.982Z,18.16
2022-08-28T01:10:28.867Z,18.15
2022-08-28T01:12:57.583Z,18.16
2022-08-28T01:15:28.653Z,18.16
2022-08-28T01:17:59.403Z,18.07
2022-08-28T01:20:32.407Z,18.04
2022-08-28T01:23:08.395Z,18.14
2022-08-28T01:25:36.840Z,18.17
2022-08-28T01:28:07.071Z,18.18
2022-08-28T01:30:34.215Z,18.04
2022-08-28T01:33:00.973Z,18.07
2022-08-28T01:35:31.784Z,18.06
2022-08-28T01:37:58.773Z,18.02
2022-08-28T01:40:33.888Z,18.07
2022-08-28T01:43:14.569Z,17.96
2022-08-28T01:45:44.384Z,17.96
2022-08-28T01:48:12.177Z,17.94
2022-08-28T01:50:39.582Z,17.93
2022-08-28T01:53:07.303Z,17.92
2022-08-28T01:55:39.526Z,17.82
2022-08-28T01:58:07.103Z,17.75
2022-08-28T02:00:34.187Z,17.76
2022-08-28T02:03:01.347Z,17.76
2022-08-28T02:05:31.241Z,17.73
2022-08-28T02:07:59.384Z,17.71
2022-08-28T02:10:27.665Z,17.70
2022-08-28T02:12:56.153Z,17.70
2022-08-28T02:15:27.037Z,17.72
2022-08-28T02:17:53.872Z,17.76
2022-08-28T02:20:20.695Z,17.76
2022-08-28T02:22:47.387Z,17.80
2022-08-28T02:25:15.139Z,17.78
2022-08-28T02:27:41.874Z,17.74
2022-08-28T02:30:11.863Z,17.75
2022-08-28T02:32:39.087Z,17.63
2022-08-28T02:35:12.000Z,17.59
2022-08-28T02:37:39.808Z,17.65
2022-08-28T02:40:07.511Z,17.59
2022-08-28T02:42:34.426Z,17.61
2022-08-28T02:45:01.198Z,17.57
2022-08-28T02:47:27.912Z,17.59
2022-08-28T02:49:54.796Z,17.64
2022-08-28T02:52:22.583Z,17.57
2022-08-28T02:54:49.345Z,17.66
2022-08-28T02:57:16.339Z,17.62
2022-08-28T02:59:44.091Z,17.53
2022-08-28T03:02:10.949Z,17.55
2022-08-28T03:04:38.280Z,17.42
2022-08-28T03:07:07.464Z,17.46
2022-08-28T03:09:34.246Z,17.48
2022-08-28T03:12:02.276Z,17.46
2022-08-28T03:14:29.106Z,17.43
2022-08-28T03:16:55.826Z,17.38
2022-08-28T03:19:22.708Z,17.47
2022-08-28T03:21:49.402Z,17.38
2022-08-28T03:24:19.868Z,17.43
2022-08-28T03:26:46.669Z,17.48
2022-08-28T03:29:13.891Z,17.39
2022-08-28T03:31:40.951Z,17.45
2022-08-28T03:34:07.798Z,17.33
2022-08-28T03:36:34.504Z,17.43
2022-08-28T03:39:03.197Z,17.30
2022-08-28T03:41:30.794Z,17.37
2022-08-28T03:44:00.014Z,17.40
2022-08-28T03:46:28.410Z,17.33
2022-08-28T03:48:55.660Z,17.33
2022-08-28T03:51:29.402Z,17.40
2022-08-28T03:53:57.832Z,17.40
2022-08-28T03:56:26.173Z,17.42
2022-08-28T03:58:57.530Z,17.38
2022-08-28T04:01:25.110Z,17.30
2022-08-28T04:03:51.885Z,17.30
2022-08-28T04:06:19.922Z,17.36
2022-08-28T04:08:47.696Z,17.37
2022-08-28T04:11:14.559Z,17.34
2022-08-28T04:13:42.185Z,17.26
2022-08-28T04:16:11.357Z,17.32
2022-08-28T04:18:40.227Z,17.37
2022-08-28T04:21:12.775Z,17.31
2022-08-28T04:23:43.349Z,17.32
2022-08-28T04:26:13.002Z,17.30
2022-08-28T04:28:39.915Z,17.40
2022-08-28T04:31:07.836Z,17.34
2022-08-28T04:33:35.883Z,17.33
2022-08-28T04:36:08.814Z,17.46
2022-08-28T04:38:36.817Z,17.31
2022-08-28T04:41:07.667Z,17.39
2022-08-28T04:43:34.672Z,17.25
2022-08-28T04:46:07.268Z,17.25
2022-08-28T04:48:34.894Z,17.21
2022-08-28T04:51:02.067Z,17.27
2022-08-28T04:53:29.632Z,17.22
2022-08-28T04:55:59.111Z,17.21
2022-08-28T04:58:27.421Z,17.17
2022-08-28T05:00:54.713Z,17.23
2022-08-28T05:03:21.828Z,17.19
2022-08-28T05:05:52.047Z,17.27
2022-08-28T05:08:21.920Z,17.30
2022-08-28T05:10:49.004Z,17.26
2022-08-28T05:13:16.608Z,17.09
2022-08-28T05:15:46.457Z,16.98
2022-08-28T05:18:14.861Z,17.13
2022-08-28T05:20:44.753Z,17.06
2022-08-28T05:23:13.190Z,17.21
2022-08-28T05:25:42.878Z,17.11
2022-08-28T05:28:12.323Z,17.12
2022-08-28T05:30:40.220Z,17.21
2022-08-28T05:33:12.389Z,17.23
2022-08-28T05:35:43.237Z,17.28
2022-08-28T05:38:11.088Z,17.18
2022-08-28T05:40:46.257Z,17.14
2022-08-28T05:43:16.361Z,17.21
2022-08-28T05:46:05.916Z,17.13
2022-08-28T05:48:37.089Z,17.21
2022-08-28T05:51:11.642Z,17.22
2022-08-28T05:53:41.320Z,17.30
2022-08-28T05:56:09.679Z,17.21
2022-08-28T05:58:37.859Z,17.25
2022-08-28T06:01:20.183Z,17.21
2022-08-28T06:03:55.922Z,17.31
2022-08-28T06:09:26.573Z,17.36
2022-08-28T06:12:01.852Z,17.27
2022-08-28T06:14:29.817Z,17.42
2022-08-28T06:17:05.035Z,17.25
2022-08-28T06:19:41.547Z,17.06
2022-08-28T06:22:24.621Z,16.85
2022-08-28T06:24:51.762Z,16.93
2022-08-28T06:27:18.639Z,16.76
2022-08-28T06:29:45.959Z,16.84
2022-08-28T06:35:16.443Z,17.02
2022-08-28T06:38:12.250Z,17.28
2022-08-28T06:40:53.414Z,17.32
2022-08-28T06:43:23.023Z,17.30
2022-08-28T06:45:54.528Z,17.31
2022-08-28T06:48:24.044Z,17.40
2022-08-28T06:50:55.345Z,17.56
2022-08-28T06:53:27.400Z,17.45
2022-08-28T06:56:01.841Z,17.31
2022-08-28T06:58:29.405Z,17.37
2022-08-28T07:01:14.271Z,17.44
2022-08-28T07:03:44.609Z,17.23
2022-08-28T07:06:13.712Z,17.22
2022-08-28T07:08:41.290Z,16.99
2022-08-28T07:11:15.061Z,16.74
2022-08-28T07:13:42.290Z,16.72
2022-08-28T07:16:09.935Z,16.94
2022-08-28T07:18:37.167Z,16.90
2022-08-28T07:21:03.968Z,16.70
2022-08-28T07:23:32.116Z,16.63
2022-08-28T07:25:58.904Z,16.58
2022-08-28T07:28:25.805Z,16.46
2022-08-28T07:31:03.968Z,16.83
2022-08-28T07:33:31.838Z,16.84
2022-08-28T07:35:59.391Z,17.04
2022-08-28T07:38:26.948Z,17.06
2022-08-28T07:40:54.677Z,17.09
2022-08-28T07:43:40.114Z,17.02
2022-08-28T07:46:09.541Z,17.04
2022-08-28T07:48:41.423Z,16.82
2022-08-28T07:51:09.790Z,16.45
2022-08-28T07:53:41.416Z,16.36
2022-08-28T08:00:01.535Z,16.23
2022-08-28T08:02:38.201Z,16.59
2022-08-28T08:05:05.567Z,16.49
2022-08-28T08:07:33.298Z,16.59
2022-08-28T08:10:00.044Z,16.49
2022-08-28T08:12:29.512Z,16.52
2022-08-28T08:14:56.392Z,16.63
2022-08-28T08:17:26.566Z,16.42
2022-08-28T08:19:54.266Z,16.44
2022-08-28T08:22:21.100Z,16.60
2022-08-28T08:24:48.614Z,16.94
2022-08-28T08:27:15.443Z,16.81
2022-08-28T08:29:42.234Z,16.93
2022-08-28T08:32:11.115Z,17.03
2022-08-28T08:34:40.892Z,17.23
2022-08-28T08:37:07.899Z,17.15
2022-08-28T08:39:35.591Z,16.84
2022-08-28T08:42:05.312Z,16.62
2022-08-28T08:44:47.021Z,16.60
2022-08-28T08:47:31.280Z,16.39
2022-08-28T08:50:00.728Z,16.63
2022-08-28T08:52:56.331Z,16.41
2022-08-28T08:55:47.495Z,16.38
2022-08-28T08:58:22.523Z,16.58
2022-08-28T09:00:58.360Z,16.46
2022-08-28T09:04:00.784Z,16.31
2022-08-28T09:06:44.615Z,16.48
2022-08-28T09:09:25.986Z,16.37
2022-08-28T09:12:05.391Z,16.54
2022-08-28T09:14:38.170Z,16.74
2022-08-28T09:17:06.400Z,16.84
2022-08-28T09:19:33.237Z,16.98
2022-08-28T09:22:00.160Z,16.98
2022-08-28T09:24:32.181Z,16.90
2022-08-28T09:27:06.020Z,16.80
2022-08-28T09:29:38.972Z,16.88
2022-08-28T09:32:26.288Z,16.88
2022-08-28T09:35:24.321Z,16.70
2022-08-28T09:37:51.707Z,16.24
2022-08-28T09:40:24.591Z,16.22
2022-08-28T09:43:26.622Z,16.33
2022-08-28T09:46:03.128Z,16.52
2022-08-28T09:48:43.528Z,16.74
2022-08-28T09:51:13.258Z,16.76
2022-08-28T09:54:02.330Z,16.89
2022-08-28T09:56:40.788Z,17.03
2022-08-28T09:59:10.218Z,17.12
2022-08-28T10:02:13.248Z,16.65
2022-08-28T10:05:03.689Z,16.84
2022-08-28T10:07:37.648Z,16.90
2022-08-28T10:10:22.348Z,17.04
2022-08-28T10:13:01.647Z,16.68
2022-08-28T10:16:06.240Z,17.04
2022-08-28T10:19:15.095Z,16.93
2022-08-28T10:21:44.597Z,16.94
2022-08-28T10:24:26.485Z,16.75
2022-08-28T10:27:06.441Z,17.05
2022-08-28T10:30:13.944Z,17.06
2022-08-28T10:33:08.043Z,17.23
2022-08-28T10:35:50.310Z,17.08
2022-08-28T10:38:27.118Z,16.99
2022-08-28T10:41:04.597Z,17.00
2022-08-28T10:43:45.848Z,16.93
2022-08-28T10:46:23.138Z,16.91
2022-08-28T10:49:01.707Z,17.04
2022-08-28T10:51:43.615Z,16.90
2022-08-28T10:54:21.297Z,16.89
2022-08-28T10:56:56.537Z,16.98
2022-08-28T10:59:25.457Z,16.81
2022-08-28T11:01:52.522Z,16.75
2022-08-28T11:04:26.972Z,16.82
2022-08-28T11:06:56.361Z,16.70
2022-08-28T11:09:42.168Z,16.57
2022-08-28T11:12:37.380Z,16.51
2022-08-28T11:15:36.762Z,16.54
2022-08-28T11:18:18.019Z,16.43
2022-08-28T11:21:13.528Z,16.60
2022-08-28T11:23:51.507Z,16.71
2022-08-28T11:26:46.681Z,16.56
2022-08-28T11:29:51.935Z,16.63
2022-08-28T11:32:30.870Z,16.85
2022-08-28T11:35:03.726Z,16.74
2022-08-28T11:37:49.111Z,16.74
2022-08-28T11:40:33.378Z,16.74
2022-08-28T11:43:15.995Z,16.76
2022-08-28T11:45:45.689Z,16.70
2022-08-28T11:48:25.915Z,16.66
2022-08-28T11:50:58.639Z,16.47
2022-08-28T11:53:51.050Z,16.67
2022-08-28T11:56:41.117Z,16.75
2022-08-28T11:59:46.758Z,16.93
2022-08-28T12:02:40.070Z,17.16
2022-08-28T12:05:11.057Z,17.25
2022-08-28T12:07:51.714Z,17.20
2022-08-28T12:10:50.298Z,17.13
2022-08-28T12:13:50.502Z,17.02
2022-08-28T12:16:18.002Z,17.12
2022-08-28T12:18:51.657Z,17.24
2022-08-28T12:21:26.090Z,17.39
2022-08-28T12:24:05.337Z,17.33
2022-08-28T12:26:59.928Z,17.61
2022-08-28T12:30:10.007Z,17.76
2022-08-28T12:35:36.815Z,17.86
2022-08-28T12:38:06.696Z,18.20
2022-08-28T12:40:53.783Z,18.02
2022-08-28T12:43:34.778Z,17.92
2022-08-28T12:46:04.967Z,17.93
2022-08-28T12:48:50.945Z,18.23
2022-08-28T12:56:58.966Z,17.99
2022-08-28T12:58:47.744Z,18.51
2022-08-28T13:01:34.153Z,18.51
2022-08-28T13:07:29.350Z,18.63
2022-08-28T13:10:27.253Z,18.79
2022-08-28T13:13:07.013Z,18.59
2022-08-28T13:15:47.895Z,18.86
2022-08-28T13:18:50.042Z,18.89
2022-08-28T13:21:33.183Z,18.70
2022-08-28T13:25:19.117Z,19.00
2022-08-28T13:28:26.265Z,19.07
2022-08-28T13:34:20.279Z,18.82
2022-08-28T13:36:49.650Z,18.71
2022-08-28T13:39:17.851Z,18.65
2022-08-28T13:41:47.797Z,18.61
2022-08-28T13:44:48.647Z,18.45
2022-08-28T13:47:15.895Z,18.50
2022-08-28T13:49:42.952Z,18.49
2022-08-28T13:52:10.769Z,18.01
2022-08-28T13:54:38.048Z,18.22
2022-08-28T13:57:09.378Z,18.26
2022-08-28T13:59:36.067Z,18.50
2022-08-28T14:02:24.229Z,18.61
2022-08-28T14:04:51.043Z,19.04
2022-08-28T14:07:18.292Z,19.27
2022-08-28T14:09:45.236Z,19.31
2022-08-28T14:12:12.203Z,19.52
2022-08-28T14:14:39.325Z,19.81
2022-08-28T14:17:07.190Z,20.02
2022-08-28T14:19:34.505Z,19.81
2022-08-28T14:22:01.269Z,20.03
2022-08-28T14:24:28.303Z,20.58
2022-08-28T14:26:55.597Z,20.90
2022-08-28T14:29:22.284Z,21.35
2022-08-28T14:31:49.234Z,21.76
2022-08-28T14:34:19.460Z,22.02
2022-08-28T14:36:50.943Z,22.17
2022-08-28T14:39:20.367Z,22.47
2022-08-28T14:41:49.595Z,22.03
2022-08-28T14:44:16.517Z,22.04
2022-08-28T14:46:45.824Z,22.76
2022-08-28T14:49:14.685Z,23.41
2022-08-28T14:51:42.605Z,23.51
2022-08-28T14:54:52.388Z,23.66
2022-08-28T14:57:36.297Z,23.84
2022-08-28T15:00:37.897Z,23.69
2022-08-28T15:03:36.205Z,23.92
2022-08-28T15:06:34.882Z,23.73
2022-08-28T15:09:24.902Z,23.52
2022-08-28T15:11:57.672Z,23.69
2022-08-28T15:14:26.743Z,23.82
2022-08-28T15:16:56.396Z,23.94
2022-08-28T15:19:32.093Z,23.54
2022-08-28T15:21:59.493Z,23.46
2022-08-28T15:24:28.902Z,23.29
2022-08-28T15:26:57.061Z,23.19
2022-08-28T15:29:24.137Z,23.36
2022-08-28T15:31:53.266Z,23.03
2022-08-28T15:34:43.656Z,22.41
2022-08-28T15:37:16.634Z,23.11
2022-08-28T15:40:03.352Z,23.37
2022-08-28T15:42:30.197Z,23.40
2022-08-28T15:44:57.156Z,23.36
2022-08-28T15:47:25.078Z,23.48
2022-08-28T15:49:56.016Z,23.57
2022-08-28T15:52:24.972Z,23.75
2022-08-28T15:55:01.646Z,23.85
2022-08-28T15:57:28.634Z,23.95
2022-08-28T15:59:55.418Z,23.70
2022-08-28T16:02:23.727Z,23.23
2022-08-28T16:04:51.507Z,23.02
2022-08-28T16:07:19.164Z,22.81
2022-08-28T16:09:45.897Z,22.47
2022-08-28T16:12:12.849Z,22.50
2022-08-28T16:14:39.841Z,22.26
2022-08-28T16:17:11.186Z,22.38
2022-08-28T16:19:41.938Z,22.41
2022-08-28T16:22:12.239Z,22.42
2022-08-28T16:24:39.053Z,22.66
2022-08-28T16:27:08.686Z,22.87
2022-08-28T16:29:37.893Z,23.02
2022-08-28T16:32:06.398Z,22.99
2022-08-28T16:34:34.008Z,23.18
2022-08-28T16:37:00.977Z,23.30
2022-08-28T16:39:39.140Z,23.37
2022-08-28T16:42:06.229Z,23.54
2022-08-28T16:44:33.176Z,23.63
2022-08-28T16:47:00.263Z,23.45
2022-08-28T16:49:53.136Z,23.60
2022-08-28T16:52:22.265Z,23.75
2022-08-28T16:54:55.033Z,23.80
2022-08-28T17:02:14.656Z,23.71
2022-08-28T17:04:52.305Z,23.79
2022-08-28T17:07:57.932Z,23.89
2022-08-28T17:11:34.131Z,23.74
2022-08-28T17:14:00.974Z,23.81
2022-08-28T17:16:30.305Z,23.77
2022-08-28T17:18:58.177Z,23.75
2022-08-28T17:21:43.964Z,23.54
2022-08-28T17:24:14.624Z,23.44
2022-08-28T17:26:42.592Z,23.25
2022-08-28T17:29:09.527Z,23.11
2022-08-28T17:31:36.786Z,22.96
2022-08-28T17:34:03.608Z,22.80
2022-08-28T17:36:33.435Z,22.57
2022-08-28T17:39:09.217Z,22.33
2022-08-28T17:41:36.054Z,22.09
2022-08-28T17:44:05.094Z,21.88
2022-08-28T17:46:37.509Z,21.74
2022-08-28T17:49:06.659Z,21.62
2022-08-28T17:51:43.534Z,21.52
2022-08-28T17:54:13.097Z,21.44
2022-08-28T17:56:40.365Z,21.06
2022-08-28T17:59:07.292Z,20.86
2022-08-28T18:01:34.297Z,20.69
2022-08-28T18:04:01.060Z,20.54
2022-08-28T18:06:27.868Z,20.38
2022-08-28T18:08:54.654Z,20.28
2022-08-28T18:11:23.911Z,20.16
2022-08-28T18:13:50.695Z,20.22
2022-08-28T18:16:18.191Z,20.14
2022-08-28T18:18:45.057Z,20.07
2022-08-28T18:21:12.390Z,20.14
2022-08-28T18:23:39.995Z,20.04
2022-08-28T18:26:08.384Z,20.00
2022-08-28T18:28:35.612Z,19.92
2022-08-28T18:31:03.667Z,19.88
2022-08-28T18:33:30.561Z,19.79
2022-08-28T18:35:57.619Z,19.72
2022-08-28T18:38:28.239Z,19.60
2022-08-28T18:40:55.297Z,19.39
2022-08-28T18:43:22.628Z,19.37
2022-08-28T18:45:49.703Z,19.38
2022-08-28T18:48:16.628Z,19.12
2022-08-28T18:50:46.353Z,18.96
2022-08-28T18:53:14.642Z,18.73
2022-08-28T18:55:41.598Z,18.58
2022-08-28T18:58:08.366Z,18.54
2022-08-28T19:00:38.427Z,18.49
2022-08-28T19:03:05.839Z,18.40
2022-08-28T19:05:33.528Z,18.26
2022-08-28T19:08:00.742Z,18.23
2022-08-28T19:10:34.001Z,18.11
2022-08-28T19:13:01.519Z,17.95
2022-08-28T19:15:29.278Z,17.92
2022-08-28T19:17:56.296Z,17.81
2022-08-28T19:20:23.119Z,17.72
2022-08-28T19:22:50.034Z,17.71
2022-08-28T19:25:28.148Z,17.67
2022-08-28T19:27:59.009Z,17.57
2022-08-28T19:30:27.789Z,17.54
2022-08-28T19:32:55.036Z,17.49
2022-08-28T19:35:24.518Z,17.48
2022-08-28T19:37:54.672Z,17.39
2022-08-28T19:40:22.055Z,17.36
2022-08-28T19:42:50.139Z,17.34
2022-08-28T19:45:17.883Z,17.36
2022-08-28T19:47:44.906Z,17.33
2022-08-28T19:50:13.002Z,17.25
2022-08-28T19:52:40.142Z,17.22
2022-08-28T19:55:07.858Z,17.24
2022-08-28T19:57:35.114Z,17.21
2022-08-28T20:00:02.412Z,17.20
2022-08-28T20:02:31.112Z,17.15
2022-08-28T20:04:57.889Z,17.15
2022-08-28T20:07:25.079Z,17.06
2022-08-28T20:09:52.421Z,16.99
2022-08-28T20:12:19.679Z,16.93
2022-08-28T20:14:47.454Z,16.86
2022-08-28T20:17:14.573Z,16.79
2022-08-28T20:19:41.431Z,16.77
2022-08-28T20:22:11.075Z,16.80
2022-08-28T20:24:39.340Z,16.75
2022-08-28T20:27:06.308Z,16.70
2022-08-28T20:29:36.537Z,16.70
2022-08-28T20:32:03.544Z,16.62
2022-08-28T20:34:30.224Z,16.55
2022-08-28T20:36:56.948Z,16.51
2022-08-28T20:39:23.689Z,16.50
2022-08-28T20:41:50.673Z,16.47
2022-08-28T20:44:19.405Z,16.31
2022-08-28T20:46:51.244Z,16.27
2022-08-28T20:49:21.820Z,16.21
2022-08-28T20:51:57.748Z,16.14
2022-08-28T20:54:30.667Z,15.95
2022-08-28T20:57:00.321Z,15.92
2022-08-28T20:59:29.697Z,15.85
2022-08-28T21:02:05.456Z,15.84
2022-08-28T21:04:36.173Z,15.67
2022-08-28T21:07:03.326Z,15.48
2022-08-28T21:09:44.001Z,15.46
2022-08-28T21:12:16.965Z,15.47
2022-08-28T21:14:44.447Z,15.54
2022-08-28T21:17:29.371Z,15.57
2022-08-28T21:20:00.582Z,15.47
2022-08-28T21:22:27.557Z,15.47
2022-08-28T21:24:54.292Z,15.56
2022-08-28T21:27:21.007Z,15.49
2022-08-28T21:29:47.942Z,15.37
2022-08-28T21:32:14.678Z,15.30
2022-08-28T21:34:41.374Z,15.20
2022-08-28T21:37:08.097Z,15.18
2022-08-28T21:39:35.367Z,15.07
2022-08-28T21:42:02.148Z,14.91
2022-08-28T21:44:29.130Z,14.95
2022-08-28T21:46:55.838Z,14.86
2022-08-28T21:49:23.162Z,14.83
2022-08-28T21:51:50.534Z,14.73
2022-08-28T21:54:18.317Z,14.74
2022-08-28T21:56:46.367Z,14.54
2022-08-28T21:59:15.185Z,14.62
2022-08-28T22:01:42.073Z,14.60
2022-08-28T22:04:11.756Z,14.53
2022-08-28T22:06:40.060Z,14.48
2022-08-28T22:09:08.000Z,14.29
2022-08-28T22:11:35.025Z,14.28
2022-08-28T22:14:01.788Z,14.32
2022-08-28T22:16:28.837Z,14.29
2022-08-28T22:18:55.822Z,14.32
2022-08-28T22:21:43.765Z,14.30
2022-08-28T22:24:11.813Z,14.26
2022-08-28T22:26:39.184Z,14.17
2022-08-28T22:29:06.172Z,14.08
2022-08-28T22:31:32.959Z,14.02
2022-08-28T22:33:59.711Z,14.15
2022-08-28T22:36:29.152Z,14.07
2022-08-28T22:38:56.472Z,14.10
2022-08-28T22:41:24.279Z,14.05
2022-08-28T22:43:51.706Z,14.16
2022-08-28T22:46:20.796Z,14.09
2022-08-28T22:48:47.628Z,13.98
2022-08-28T22:51:18.560Z,13.94
2022-08-28T22:53:46.845Z,14.16
2022-08-28T22:56:13.715Z,14.10
2022-08-28T22:58:40.712Z,13.96
2022-08-28T23:01:15.854Z,13.89
2022-08-28T23:03:42.662Z,14.02
2022-08-28T23:06:09.451Z,13.93
2022-08-28T23:08:36.360Z,14.12
2022-08-28T23:11:03.797Z,14.12
2022-08-28T23:13:31.054Z,13.96
2022-08-28T23:15:58.337Z,14.07
2022-08-28T23:18:25.541Z,14.05
2022-08-28T23:20:55.459Z,13.97
2022-08-28T23:23:23.514Z,14.01
2022-08-28T23:25:50.614Z,13.92
2022-08-28T23:28:18.259Z,13.98
2022-08-28T23:30:48.481Z,13.98
2022-08-28T23:33:23.772Z,13.86
2022-08-28T23:35:52.218Z,13.83
2022-08-28T23:38:19.262Z,13.74
2022-08-28T23:40:48.279Z,13.83
2022-08-28T23:43:15.549Z,13.76
2022-08-28T23:45:44.421Z,13.82
2022-08-28T23:48:12.165Z,13.78
2022-08-28T23:50:41.722Z,13.90
2022-08-28T23:53:09.105Z,13.89
2022-08-28T23:55:36.629Z,13.72
2022-08-28T23:58:04.194Z,13.67
